CheckWX is a tool to help pilots better visualize weather data.  It is not intended as a substitute for an official pre-flight weather briefing.

04:40:45 UTC

KGYY TAF
Gary / Chicago International Airport
Gary, Indiana, USA
KGYY 222322Z 2300/2324 04014G22KT P6SM SCT050 FM230200 04010KT P6SM FEW250 FM231500 03012G20KT P6SM FEW250

Aug-23@
00:00 UTC

Aug-23 @ 00:00 UTC

Aug-23@
02:00 UTC

Aug-23 @ 02:00 UTC

KGYY 222322Z 2300/2324 04014G22KT P6SM SCT050

Expired

Wind
  • 040° at 14 KTS
  • {Gusting to 22 KTS
Cloud Levels
  • Scattered at 5,000' AGL

Aug-23@
02:00 UTC

Aug-23 @ 02:00 UTC

Aug-23@
15:00 UTC

Aug-23 @ 15:00 UTC

FM230200 04010KT P6SM FEW250

From

From Standard forecast or significant change

Wind
  • 040° at 10 KTS
Cloud Levels
  • Few at 25,000' AGL

Aug-23@
15:00 UTC

Aug-23 @ 15:00 UTC

Aug-24@
00:00 UTC

Aug-24 @ 00:00 UTC

FM231500 03012G20KT P6SM FEW250

From

From Standard forecast or significant change

Wind
  • 030° at 12 KTS
  • {Gusting to 20 KTS
Cloud Levels
  • Few at 25,000' AGL